Time;durP1;ratioP1;P1;durP2;ratioP2;P2;SDS_P1;SDS_P2;PMS_P1;PMS_P2;Temp;Humidity;BMP_temperature;BMP_pressure;BME280_temperature;BME280_humidity;BME280_pressure;Samples;Min_cycle;Max_cycle;Signal;HPM_P1;HPM_P2
2020/12/29 00:00:21;;;;;;;1.63;0.93;;;14.70;65.60;;;;;;5060761;28;20086;-69
2020/12/29 00:02:53;;;;;;;3.42;0.60;;;14.70;65.50;;;;;;5064859;28;20048;-68
2020/12/29 00:05:24;;;;;;;2.97;0.90;;;14.80;65.50;;;;;;5063881;28;20045;-68
2020/12/29 00:07:56;;;;;;;2.25;0.70;;;14.80;65.40;;;;;;5068172;28;20036;-69
2020/12/29 00:10:26;;;;;;;2.20;0.68;;;14.80;65.40;;;;;;5064708;28;20037;-68
2020/12/29 00:12:59;;;;;;;3.10;0.85;;;14.80;65.40;;;;;;5066674;28;20040;-68
2020/12/29 00:15:29;;;;;;;1.27;0.88;;;14.90;65.50;;;;;;5061116;28;20049;-68
2020/12/29 00:17:58;;;;;;;1.70;0.60;;;14.90;65.50;;;;;;5064484;28;20432;-68
2020/12/29 00:20:28;;;;;;;0.68;0.50;;;14.90;65.50;;;;;;5064030;28;20130;-68
2020/12/29 00:22:58;;;;;;;3.20;0.93;;;14.90;65.40;;;;;;5065984;28;20368;-68
2020/12/29 00:25:29;;;;;;;1.98;0.70;;;15.00;65.40;;;;;;5064643;28;20039;-68
2020/12/29 00:27:59;;;;;;;1.38;0.55;;;15.00;65.40;;;;;;5067025;28;20755;-68
2020/12/29 00:30:29;;;;;;;1.17;0.70;;;15.10;65.40;;;;;;5064400;28;20041;-69
2020/12/29 00:33:03;;;;;;;1.00;0.40;;;15.00;65.20;;;;;;5062541;28;20037;-68
2020/12/29 00:35:32;;;;;;;0.85;0.50;;;15.10;65.30;;;;;;5060318;28;20048;-69
2020/12/29 00:38:03;;;;;;;1.92;1.00;;;15.10;65.30;;;;;;5061551;28;20052;-69
2020/12/29 00:40:33;;;;;;;1.20;0.55;;;15.10;65.20;;;;;;5072687;28;20056;-68
2020/12/29 00:43:05;;;;;;;2.80;0.60;;;15.10;65.30;;;;;;5079040;28;20047;-68
2020/12/29 00:45:34;;;;;;;1.67;0.50;;;15.20;65.30;;;;;;5051074;28;20048;-69
2020/12/29 00:48:04;;;;;;;2.33;0.73;;;15.20;65.20;;;;;;5067882;28;20068;-70
2020/12/29 00:50:34;;;;;;;1.77;0.80;;;15.20;65.20;;;;;;5075561;28;20048;-70
2020/12/29 00:53:08;;;;;;;1.75;0.50;;;15.30;65.20;;;;;;5064577;28;20048;-69
2020/12/29 00:55:44;;;;;;;2.45;0.80;;;15.30;65.20;;;;;;5063142;28;20281;-70
2020/12/29 00:58:15;;;;;;;2.03;0.50;;;15.30;65.20;;;;;;5064647;28;20053;-70
2020/12/29 01:00:48;;;;;;;1.95;0.60;;;15.40;65.20;;;;;;5050785;28;20141;-69
2020/12/29 01:03:18;;;;;;;3.80;0.50;;;15.40;65.10;;;;;;5066107;28;20068;-69
2020/12/29 01:05:50;;;;;;;2.05;0.88;;;15.40;65.10;;;;;;5058307;28;20063;-69
2020/12/29 01:08:20;;;;;;;2.22;0.70;;;15.40;65.00;;;;;;5052154;28;20052;-68
2020/12/29 01:10:59;;;;;;;0.73;0.50;;;15.50;65.00;;;;;;5062825;28;20059;-68
2020/12/29 01:13:45;;;;;;;3.40;0.90;;;15.50;65.10;;;;;;5064915;28;20044;-68
2020/12/29 01:16:17;;;;;;;0.47;0.47;;;15.50;64.90;;;;;;5064150;28;20048;-68
2020/12/29 01:18:54;;;;;;;1.92;0.98;;;15.60;65.00;;;;;;5064816;28;20062;-68
2020/12/29 01:21:23;;;;;;;0.88;0.50;;;15.60;64.90;;;;;;5054832;28;20260;-67
2020/12/29 01:23:53;;;;;;;3.13;0.88;;;15.60;64.90;;;;;;5054600;28;20036;-67
2020/12/29 01:26:28;;;;;;;4.15;0.88;;;15.70;64.90;;;;;;5066333;28;20064;-68
2020/12/29 01:28:59;;;;;;;2.45;0.85;;;15.70;64.90;;;;;;5053564;28;20157;-67
2020/12/29 01:31:29;;;;;;;1.15;0.50;;;15.70;64.80;;;;;;5067135;28;20045;-67
2020/12/29 01:34:00;;;;;;;0.40;0.40;;;15.70;64.70;;;;;;5048780;28;20037;-66
2020/12/29 01:36:30;;;;;;;2.57;1.13;;;15.80;64.70;;;;;;5060108;28;20075;-67
2020/12/29 01:38:59;;;;;;;1.88;0.73;;;15.80;64.80;;;;;;5062476;28;20621;-67
2020/12/29 01:41:35;;;;;;;3.25;0.60;;;15.80;64.70;;;;;;5059425;28;20041;-66
2020/12/29 01:44:17;;;;;;;2.92;0.80;;;15.90;64.70;;;;;;5055435;28;20409;-67
2020/12/29 01:46:48;;;;;;;;;;;15.90;64.70;;;;;;5060564;28;20036;-67
2020/12/29 01:49:20;;;;;;;0.60;0.60;;;15.90;64.70;;;;;;5072543;28;19935;-67
2020/12/29 01:51:52;;;;;;;1.13;0.60;;;16.00;64.70;;;;;;5066891;28;20310;-66
2020/12/29 01:54:23;;;;;;;4.22;0.68;;;16.00;64.50;;;;;;5052554;28;20465;-68
2020/12/29 01:56:53;;;;;;;1.25;0.70;;;16.00;64.60;;;;;;5062223;28;20067;-66
2020/12/29 01:59:24;;;;;;;1.17;0.55;;;16.00;64.60;;;;;;5049121;28;20053;-68
2020/12/29 02:01:55;;;;;;;1.63;0.60;;;16.10;64.70;;;;;;5051497;28;20119;-65
2020/12/29 02:04:25;;;;;;;0.70;0.60;;;16.10;64.50;;;;;;5052581;28;20040;-65
2020/12/29 02:06:57;;;;;;;1.48;0.60;;;16.20;64.60;;;;;;5056748;28;20037;-66
2020/12/29 02:09:28;;;;;;;1.73;0.50;;;16.20;64.70;;;;;;5059754;28;20041;-65
2020/12/29 02:12:00;;;;;;;2.97;0.60;;;16.20;64.50;;;;;;5056174;28;20304;-65
2020/12/29 02:14:30;;;;;;;3.30;0.60;;;16.30;64.50;;;;;;5059704;28;20484;-67
2020/12/29 02:16:59;;;;;;;1.65;0.65;;;16.30;64.40;;;;;;5062699;28;20276;-65
2020/12/29 02:19:29;;;;;;;2.20;0.70;;;16.30;64.50;;;;;;5050024;28;20055;-67
2020/12/29 02:21:58;;;;;;;0.80;0.60;;;16.40;64.40;;;;;;5059683;28;20123;-67
2020/12/29 02:24:30;;;;;;;1.10;0.50;;;16.40;64.40;;;;;;5062957;28;20036;-67
2020/12/29 02:27:07;;;;;;;2.70;0.98;;;16.50;64.40;;;;;;5048058;28;20048;-65
2020/12/29 02:29:37;;;;;;;2.13;0.60;;;16.50;64.30;;;;;;5062476;28;20037;-67
2020/12/29 02:32:06;;;;;;;2.38;0.50;;;16.50;64.30;;;;;;5059087;28;20392;-66
2020/12/29 02:34:37;;;;;;;0.75;0.50;;;16.60;64.40;;;;;;5061452;28;20121;-66
2020/12/29 02:37:10;;;;;;;0.60;0.43;;;16.60;64.30;;;;;;5059907;28;20049;-66
2020/12/29 02:39:42;;;;;;;2.45;0.57;;;16.70;64.30;;;;;;5060994;28;20147;-67
2020/12/29 02:42:13;;;;;;;1.65;0.50;;;16.70;64.20;;;;;;5068709;28;20044;-68
2020/12/29 02:44:44;;;;;;;0.60;0.60;;;16.70;64.20;;;;;;5062970;28;20056;-67
2020/12/29 02:47:14;;;;;;;2.78;0.60;;;16.80;64.10;;;;;;5068989;28;20829;-64
2020/12/29 02:49:47;;;;;;;0.50;0.50;;;16.80;64.10;;;;;;5079131;28;20130;-66
2020/12/29 02:52:19;;;;;;;0.40;0.40;;;16.80;64.10;;;;;;5061656;28;20103;-66
2020/12/29 02:54:50;;;;;;;0.50;0.50;;;16.90;64.00;;;;;;5060787;28;20063;-68
2020/12/29 02:57:19;;;;;;;1.55;0.65;;;16.90;64.00;;;;;;5067974;28;20048;-66
2020/12/29 02:59:52;;;;;;;3.20;0.55;;;16.90;63.90;;;;;;5067402;28;20052;-65
2020/12/29 03:02:23;;;;;;;1.15;0.50;;;17.00;64.00;;;;;;5065744;28;20033;-65
2020/12/29 03:04:53;;;;;;;1.05;0.40;;;17.00;63.90;;;;;;5067638;28;20056;-68
2020/12/29 03:07:24;;;;;;;0.30;0.30;;;17.10;63.90;;;;;;5065648;28;20028;-67
2020/12/29 03:09:55;;;;;;;1.75;0.73;;;17.10;63.90;;;;;;5067781;28;20047;-64
2020/12/29 03:12:27;;;;;;;0.98;0.85;;;17.10;63.80;;;;;;5060212;28;20037;-66
2020/12/29 03:14:57;;;;;;;1.15;0.70;;;17.20;63.90;;;;;;5065478;28;20041;-66
2020/12/29 03:17:30;;;;;;;;;;;17.20;63.80;;;;;;5063832;28;20140;-64
2020/12/29 03:20:01;;;;;;;1.85;0.55;;;17.20;63.80;;;;;;5068278;28;19971;-66
2020/12/29 03:22:32;;;;;;;1.17;0.70;;;17.30;63.70;;;;;;5066018;28;20132;-66
2020/12/29 03:25:03;;;;;;;1.58;0.65;;;17.30;63.70;;;;;;5067593;28;20052;-64
2020/12/29 03:27:36;;;;;;;0.40;0.40;;;17.40;63.70;;;;;;5064913;28;20040;-66
2020/12/29 03:30:05;;;;;;;3.30;0.60;;;17.40;63.70;;;;;;5059271;28;20045;-64
2020/12/29 03:32:35;;;;;;;1.95;0.57;;;17.40;63.60;;;;;;5058511;28;20044;-66
2020/12/29 03:35:05;;;;;;;1.33;0.75;;;17.40;63.60;;;;;;5066249;28;20472;-66
2020/12/29 03:37:34;;;;;;;2.95;0.50;;;17.50;63.60;;;;;;5064981;28;20059;-64
2020/12/29 03:40:04;;;;;;;1.25;0.50;;;17.50;63.60;;;;;;5055147;28;20163;-67
2020/12/29 03:42:37;;;;;;;1.00;0.40;;;17.50;63.50;;;;;;5062602;28;20327;-67
2020/12/29 03:45:06;;;;;;;2.63;1.02;;;17.60;63.50;;;;;;5051724;28;20060;-66
2020/12/29 03:47:37;;;;;;;1.40;0.52;;;17.60;63.60;;;;;;5051540;28;20048;-67
2020/12/29 03:50:07;;;;;;;3.25;0.70;;;17.60;63.50;;;;;;5077475;28;20084;-66
2020/12/29 03:52:39;;;;;;;1.98;0.60;;;17.70;63.50;;;;;;5055397;28;20090;-67
2020/12/29 03:55:10;;;;;;;0.68;0.68;;;17.70;63.50;;;;;;5068099;28;20044;-67
2020/12/29 03:57:40;;;;;;;1.00;0.63;;;17.70;63.40;;;;;;5058946;28;20045;-63
2020/12/29 04:00:10;;;;;;;1.20;0.52;;;17.80;63.40;;;;;;5067143;28;20055;-68
2020/12/29 04:02:41;;;;;;;;;;;17.80;63.30;;;;;;5058566;28;20117;-66
2020/12/29 04:05:12;;;;;;;2.00;0.50;;;17.80;63.40;;;;;;5060630;28;20471;-67
2020/12/29 04:07:44;;;;;;;1.60;0.50;;;17.90;63.30;;;;;;5065444;28;20144;-66
2020/12/29 04:10:15;;;;;;;1.27;0.73;;;17.90;63.40;;;;;;5059774;28;20045;-66
2020/12/29 04:12:48;;;;;;;0.45;0.38;;;17.90;63.20;;;;;;5067620;28;20115;-65
2020/12/29 04:15:18;;;;;;;;;;;17.90;63.30;;;;;;5054962;28;20114;-65
2020/12/29 04:17:47;;;;;;;0.70;0.45;;;18.00;63.30;;;;;;5054667;28;19924;-66
2020/12/29 04:20:20;;;;;;;1.27;0.50;;;18.00;63.30;;;;;;5056217;28;20044;-65
2020/12/29 04:22:50;;;;;;;2.22;0.68;;;18.00;63.20;;;;;;5054082;28;20045;-66
2020/12/29 04:25:21;;;;;;;;;;;18.10;63.20;;;;;;5058351;28;20041;-66
2020/12/29 04:27:51;;;;;;;1.92;0.82;;;18.10;63.20;;;;;;5065165;28;19928;-66
2020/12/29 04:30:20;;;;;;;2.28;0.80;;;18.20;63.20;;;;;;5053902;28;20036;-66
2020/12/29 04:32:50;;;;;;;1.92;1.02;;;18.20;63.20;;;;;;5055654;28;20041;-66
2020/12/29 04:35:19;;;;;;;1.25;0.50;;;18.20;63.10;;;;;;5057861;28;20069;-66
2020/12/29 04:37:49;;;;;;;1.90;0.50;;;18.20;63.10;;;;;;5052259;28;20045;-65
2020/12/29 04:40:20;;;;;;;1.08;0.50;;;18.20;63.10;;;;;;5060157;28;20090;-65
2020/12/29 04:42:52;;;;;;;3.58;0.40;;;18.30;63.10;;;;;;5077190;28;20036;-66
2020/12/29 04:45:23;;;;;;;0.88;0.50;;;18.30;63.00;;;;;;5060871;28;20602;-66
2020/12/29 04:47:56;;;;;;;2.72;0.73;;;18.30;63.00;;;;;;5058768;28;20041;-69
2020/12/29 04:50:30;;;;;;;2.47;0.47;;;18.40;63.00;;;;;;5067687;28;20424;-68
2020/12/29 04:53:07;;;;;;;1.98;0.75;;;18.40;63.10;;;;;;5054100;28;20108;-68
2020/12/29 04:55:42;;;;;;;0.60;0.40;;;18.40;62.90;;;;;;5054279;28;20059;-67
2020/12/29 04:58:17;;;;;;;3.17;0.57;;;18.50;63.00;;;;;;5066748;28;20053;-66
2020/12/29 05:00:49;;;;;;;4.32;0.88;;;18.50;62.90;;;;;;5063235;28;20037;-66
2020/12/29 05:03:19;;;;;;;0.63;0.30;;;18.50;62.80;;;;;;5061892;28;20049;-66
2020/12/29 05:05:52;;;;;;;2.10;0.57;;;18.60;62.80;;;;;;5057020;28;20029;-67
2020/12/29 05:08:24;;;;;;;0.77;0.52;;;18.60;62.80;;;;;;5059694;28;20045;-65
2020/12/29 05:10:55;;;;;;;1.30;0.40;;;18.60;62.70;;;;;;5051074;28;20040;-66
2020/12/29 05:13:27;;;;;;;1.92;0.32;;;18.60;62.70;;;;;;5049470;28;20043;-66
2020/12/29 05:15:57;;;;;;;0.35;0.30;;;18.70;62.70;;;;;;5050459;28;20082;-66
2020/12/29 05:18:27;;;;;;;1.17;0.40;;;18.70;62.60;;;;;;5065579;28;20072;-66
2020/12/29 05:20:57;;;;;;;1.00;0.52;;;18.80;62.60;;;;;;5049246;28;20051;-66
2020/12/29 05:23:29;;;;;;;0.75;0.30;;;18.80;62.60;;;;;;5057074;28;20049;-66
2020/12/29 05:26:00;;;;;;;2.03;0.50;;;18.80;62.50;;;;;;5048533;28;20044;-71
2020/12/29 05:28:30;;;;;;;1.70;0.57;;;18.90;62.60;;;;;;5057227;28;20068;-66
2020/12/29 05:31:02;;;;;;;3.60;0.68;;;18.90;62.60;;;;;;5058253;28;20086;-65
2020/12/29 05:33:32;;;;;;;0.77;0.40;;;18.90;62.50;;;;;;5051774;28;20116;-66
2020/12/29 05:36:03;;;;;;;0.85;0.50;;;18.90;62.50;;;;;;5060206;28;20068;-67
2020/12/29 05:38:33;;;;;;;2.60;0.47;;;19.00;62.50;;;;;;5060442;28;20123;-66
2020/12/29 05:41:04;;;;;;;2.35;0.70;;;19.00;62.40;;;;;;5050790;28;20079;-66
2020/12/29 05:43:35;;;;;;;1.13;0.40;;;19.00;62.30;;;;;;5074907;28;20052;-67
2020/12/29 05:46:09;;;;;;;0.57;0.40;;;19.00;62.30;;;;;;5056212;28;20055;-67
2020/12/29 05:48:39;;;;;;;0.40;0.40;;;19.10;62.30;;;;;;5057764;28;20127;-68
2020/12/29 05:51:14;;;;;;;2.13;0.65;;;19.10;62.20;;;;;;5046904;28;20083;-69
2020/12/29 05:53:47;;;;;;;0.93;0.30;;;19.10;62.20;;;;;;5056559;28;20060;-68
2020/12/29 05:56:19;;;;;;;1.25;0.50;;;19.20;62.20;;;;;;5057148;28;20127;-68
2020/12/29 05:58:49;;;;;;;;;;;19.20;62.20;;;;;;5062742;28;20048;-67
2020/12/29 06:01:22;;;;;;;0.52;0.30;;;19.20;62.20;;;;;;5080984;28;19924;-66
2020/12/29 06:03:52;;;;;;;0.95;0.63;;;19.20;62.10;;;;;;5058939;28;20048;-67
2020/12/29 06:06:26;;;;;;;0.88;0.40;;;19.30;62.10;;;;;;5054148;28;20040;-65
2020/12/29 06:09:01;;;;;;;2.13;0.65;;;19.30;62.20;;;;;;5057735;28;20135;-67
2020/12/29 06:11:42;;;;;;;1.23;0.45;;;19.30;62.10;;;;;;5045998;28;20065;-67
2020/12/29 06:14:15;;;;;;;1.15;0.40;;;19.30;62.10;;;;;;5053453;28;20033;-67
2020/12/29 06:16:46;;;;;;;1.27;0.40;;;19.40;62.10;;;;;;5057307;28;20496;-67
2020/12/29 06:19:30;;;;;;;1.08;0.32;;;19.40;62.20;;;;;;5059063;28;20048;-66
2020/12/29 06:22:11;;;;;;;2.13;0.45;;;19.40;62.00;;;;;;5056479;28;20053;-67
2020/12/29 06:24:48;;;;;;;0.55;0.40;;;19.40;62.10;;;;;;5050696;28;20063;-67
2020/12/29 06:27:20;;;;;;;1.45;0.65;;;19.50;62.00;;;;;;5059093;28;20049;-67
2020/12/29 06:29:54;;;;;;;2.83;0.40;;;19.50;62.00;;;;;;5050795;28;20045;-65
2020/12/29 06:32:28;;;;;;;2.08;0.60;;;19.50;61.90;;;;;;5060249;28;20512;-67
2020/12/29 06:34:58;;;;;;;1.27;0.50;;;19.50;61.90;;;;;;5063487;28;20059;-67
2020/12/29 06:37:55;;;;;;;1.95;0.77;;;19.60;61.90;;;;;;5065163;28;20098;-67
2020/12/29 06:40:29;;;;;;;2.00;0.57;;;19.60;61.90;;;;;;5057904;28;20163;-68
2020/12/29 06:43:01;;;;;;;1.17;0.52;;;19.60;61.80;;;;;;5076350;28;20051;-67
2020/12/29 06:45:36;;;;;;;2.15;0.65;;;19.60;61.80;;;;;;5056171;28;20051;-66
2020/12/29 06:48:21;;;;;;;1.30;0.45;;;19.60;61.70;;;;;;5058653;28;20564;-66
2020/12/29 06:50:53;;;;;;;0.30;0.30;;;19.60;61.70;;;;;;5065692;28;20036;-67
2020/12/29 06:53:23;;;;;;;3.13;0.57;;;19.70;61.60;;;;;;5062006;28;20029;-68
2020/12/29 06:55:53;;;;;;;2.92;0.77;;;19.70;61.60;;;;;;5048737;28;20052;-67
2020/12/29 06:58:33;;;;;;;0.52;0.50;;;19.70;61.50;;;;;;5057670;28;20045;-68
2020/12/29 07:01:20;;;;;;;0.80;0.52;;;19.70;61.60;;;;;;5062277;28;20044;-67
2020/12/29 07:04:11;;;;;;;0.77;0.75;;;19.80;61.50;;;;;;5057228;28;20051;-68
2020/12/29 07:06:42;;;;;;;0.77;0.50;;;19.80;61.40;;;;;;5062311;28;20041;-67
2020/12/29 07:09:27;;;;;;;2.70;0.60;;;19.80;61.30;;;;;;5063344;28;20120;-68
2020/12/29 07:12:06;;;;;;;2.78;0.40;;;19.80;61.20;;;;;;5052173;28;20514;-67
2020/12/29 07:14:36;;;;;;;0.52;0.40;;;19.90;61.30;;;;;;5058823;28;20041;-67
2020/12/29 07:17:07;;;;;;;1.27;0.50;;;19.80;61.20;;;;;;5054678;28;20060;-67
2020/12/29 07:19:44;;;;;;;0.88;0.77;;;19.90;61.20;;;;;;5059113;28;20059;-67
2020/12/29 07:22:19;;;;;;;0.47;0.30;;;19.90;61.20;;;;;;5043212;28;20048;-67
2020/12/29 07:24:50;;;;;;;5.72;0.85;;;19.90;61.20;;;;;;5052750;28;20107;-67
2020/12/29 07:27:21;;;;;;;0.95;0.60;;;19.90;61.10;;;;;;5049654;28;20052;-67
2020/12/29 07:30:16;;;;;;;1.40;0.50;;;19.90;61.00;;;;;;5071353;28;20041;-67
2020/12/29 07:32:46;;;;;;;2.10;0.60;;;20.00;61.10;;;;;;5062700;28;20566;-67
2020/12/29 07:35:20;;;;;;;1.23;0.57;;;20.00;61.00;;;;;;5060471;28;20048;-68
2020/12/29 07:37:54;;;;;;;1.13;0.52;;;20.00;61.00;;;;;;5046513;28;20056;-67
2020/12/29 07:40:27;;;;;;;1.17;0.50;;;20.00;60.90;;;;;;5047108;28;20122;-67
2020/12/29 07:42:59;;;;;;;0.57;0.32;;;20.00;60.80;;;;;;5070672;28;20051;-67
2020/12/29 07:45:29;;;;;;;1.58;0.60;;;20.10;60.80;;;;;;5063407;28;20067;-68
2020/12/29 07:48:03;;;;;;;2.38;0.68;;;20.10;60.90;;;;;;5049484;28;20045;-68
2020/12/29 07:50:36;;;;;;;3.17;0.70;;;20.00;60.80;;;;;;5081127;28;20408;-68
2020/12/29 07:53:13;;;;;;;1.25;0.55;;;20.00;60.70;;;;;;5064878;28;20033;-69
2020/12/29 07:55:46;;;;;;;1.50;0.50;;;20.10;60.70;;;;;;5059757;28;20124;-69
2020/12/29 07:58:17;;;;;;;1.65;0.63;;;20.10;60.90;;;;;;5059444;28;20052;-66
2020/12/29 08:00:48;;;;;;;;;;;20.10;60.60;;;;;;5049206;28;20045;-67
2020/12/29 08:03:19;;;;;;;1.17;0.60;;;20.10;60.60;;;;;;5058713;28;20295;-67
2020/12/29 08:05:50;;;;;;;2.05;1.80;;;20.10;60.50;;;;;;5066380;28;20053;-68
2020/12/29 08:08:20;;;;;;;4.40;0.93;;;20.10;60.50;;;;;;5062123;28;20529;-68
2020/12/29 08:10:50;;;;;;;1.38;0.43;;;20.10;60.40;;;;;;5048740;28;20053;-69
2020/12/29 08:13:22;;;;;;;0.63;0.40;;;20.10;60.50;;;;;;5056353;28;20036;-68
2020/12/29 08:15:54;;;;;;;2.83;0.50;;;20.20;60.50;;;;;;5054141;28;20147;-68
2020/12/29 08:18:23;;;;;;;1.25;0.90;;;20.10;60.40;;;;;;5064955;28;20118;-67
2020/12/29 08:20:57;;;;;;;1.30;0.50;;;20.20;60.50;;;;;;5053690;28;20050;-68
2020/12/29 08:23:29;;;;;;;1.02;1.00;;;20.20;60.50;;;;;;5064440;28;20050;-68
2020/12/29 08:26:03;;;;;;;1.88;1.08;;;20.20;60.50;;;;;;5048313;28;20040;-67
2020/12/29 08:28:33;;;;;;;2.80;1.10;;;20.20;60.50;;;;;;5051717;28;20048;-67
2020/12/29 08:31:04;;;;;;;0.93;0.60;;;20.20;60.40;;;;;;5048270;28;20295;-67
2020/12/29 08:33:35;;;;;;;0.80;0.43;;;20.20;60.30;;;;;;5050404;28;20040;-68
2020/12/29 08:36:05;;;;;;;1.42;0.77;;;20.20;60.40;;;;;;5065984;28;20044;-68
2020/12/29 08:38:41;;;;;;;1.45;0.50;;;20.20;60.40;;;;;;5064086;28;20125;-68
2020/12/29 08:41:21;;;;;;;2.78;0.52;;;20.20;60.20;;;;;;5064681;28;20040;-68
2020/12/29 08:43:55;;;;;;;3.50;0.60;;;20.20;60.20;;;;;;5091619;28;20064;-67
2020/12/29 08:46:27;;;;;;;1.85;0.93;;;20.20;60.30;;;;;;5066015;28;20049;-68
2020/12/29 08:49:04;;;;;;;2.33;0.93;;;20.30;60.10;;;;;;5055934;28;20048;-68
2020/12/29 08:51:43;;;;;;;1.25;0.70;;;20.20;60.10;;;;;;5065231;28;20045;-69
2020/12/29 08:54:18;;;;;;;2.03;0.70;;;20.20;60.10;;;;;;5064865;28;20044;-69
2020/12/29 08:56:49;;;;;;;1.85;1.75;;;20.20;59.90;;;;;;5065185;28;20088;-69
2020/12/29 08:59:22;;;;;;;2.35;1.50;;;20.20;59.80;;;;;;5064748;28;20048;-67
2020/12/29 09:02:00;;;;;;;2.78;1.70;;;20.20;59.80;;;;;;5066415;28;20046;-68
2020/12/29 09:04:30;;;;;;;2.17;1.00;;;20.20;59.80;;;;;;5064329;28;20554;-70
2020/12/29 09:07:13;;;;;;;3.25;1.30;;;20.20;59.80;;;;;;5063582;28;20144;-70
2020/12/29 09:09:52;;;;;;;3.35;1.80;;;20.10;59.60;;;;;;5054746;28;20237;-71
2020/12/29 09:12:31;;;;;;;4.35;2.13;;;20.10;60.00;;;;;;5064617;28;20040;-69
2020/12/29 09:15:03;;;;;;;2.00;1.88;;;20.10;59.60;;;;;;5063754;28;20063;-67
2020/12/29 09:17:35;;;;;;;2.28;1.20;;;20.10;59.70;;;;;;5052471;28;20067;-68
2020/12/29 09:20:25;;;;;;;0.50;0.50;;;20.10;59.70;;;;;;5045688;28;20586;-68
2020/12/29 09:23:12;;;;;;;2.60;0.60;;;20.10;59.70;;;;;;5060138;28;20044;-68
2020/12/29 09:25:45;;;;;;;2.47;0.90;;;20.10;59.70;;;;;;5060868;28;20037;-68
2020/12/29 09:28:14;;;;;;;2.08;1.10;;;20.10;59.80;;;;;;5057144;28;20052;-68
2020/12/29 09:30:48;;;;;;;3.90;2.55;;;20.10;59.80;;;;;;5048830;28;20051;-68
2020/12/29 09:33:21;;;;;;;3.30;1.30;;;20.00;59.70;;;;;;5053459;28;20044;-67
2020/12/29 09:35:54;;;;;;;1.05;0.60;;;20.00;59.70;;;;;;5048064;28;20116;-68
2020/12/29 09:38:24;;;;;;;1.63;1.58;;;20.10;59.80;;;;;;5046412;28;20041;-68
2020/12/29 09:41:08;;;;;;;4.00;1.35;;;20.10;59.80;;;;;;5056866;28;20102;-67
2020/12/29 09:43:38;;;;;;;1.80;1.70;;;20.10;59.90;;;;;;5074497;28;20348;-67
2020/12/29 09:46:08;;;;;;;2.65;2.35;;;20.00;59.80;;;;;;5053623;28;20072;-68
2020/12/29 09:48:41;;;;;;;3.63;2.53;;;20.00;59.80;;;;;;5070555;28;20127;-69
2020/12/29 09:51:16;;;;;;;2.97;1.05;;;20.00;59.80;;;;;;5069784;28;20123;-69
2020/12/29 09:53:47;;;;;;;1.85;1.70;;;20.00;59.90;;;;;;5055288;28;20527;-70
2020/12/29 09:56:23;;;;;;;2.05;1.23;;;20.00;60.00;;;;;;5060869;28;20059;-68
2020/12/29 09:58:53;;;;;;;1.63;1.17;;;19.90;59.80;;;;;;5055316;28;20040;-68
2020/12/29 10:01:25;;;;;;;0.95;0.63;;;19.90;59.90;;;;;;5062036;28;20167;-68
2020/12/29 10:03:56;;;;;;;1.55;0.80;;;19.90;59.90;;;;;;5063976;28;20531;-69
2020/12/29 10:06:27;;;;;;;2.53;0.98;;;19.90;60.00;;;;;;5051517;28;20511;-68
2020/12/29 10:08:59;;;;;;;3.87;1.17;;;19.90;60.00;;;;;;5044963;28;20041;-68
2020/12/29 10:11:30;;;;;;;1.58;1.48;;;19.90;60.10;;;;;;5049076;28;20285;-68
2020/12/29 10:14:01;;;;;;;1.50;1.38;;;19.90;60.10;;;;;;5072451;28;20033;-68
2020/12/29 10:16:34;;;;;;;1.90;1.00;;;19.80;60.10;;;;;;5045465;28;20045;-67
2020/12/29 10:19:04;;;;;;;1.77;1.20;;;19.80;60.20;;;;;;5049518;28;20044;-68
2020/12/29 10:21:34;;;;;;;1.23;0.98;;;19.80;60.30;;;;;;5044578;28;20053;-67
2020/12/29 10:24:04;;;;;;;2.05;1.70;;;19.80;60.30;;;;;;5072313;28;20098;-68
2020/12/29 10:26:34;;;;;;;2.30;2.20;;;19.80;60.30;;;;;;5051262;28;20090;-68
2020/12/29 10:29:05;;;;;;;3.83;1.58;;;19.80;60.50;;;;;;5051079;28;20053;-68
2020/12/29 10:31:35;;;;;;;3.60;2.03;;;19.70;60.50;;;;;;5058793;28;20139;-68
2020/12/29 10:34:05;;;;;;;2.63;2.42;;;19.70;60.50;;;;;;5057788;28;20048;-68
2020/12/29 10:36:37;;;;;;;2.88;1.73;;;19.70;60.60;;;;;;5058341;28;20041;-67
2020/12/29 10:39:08;;;;;;;2.40;1.50;;;19.70;60.70;;;;;;5055708;28;20041;-68
2020/12/29 10:41:40;;;;;;;2.25;1.35;;;19.70;61.30;;;;;;5060673;28;20052;-68
2020/12/29 10:44:11;;;;;;;4.15;3.85;;;19.70;60.70;;;;;;5072592;28;20041;-68
2020/12/29 10:46:44;;;;;;;3.35;0.85;;;19.70;60.80;;;;;;5052177;28;20782;-68
2020/12/29 10:49:16;;;;;;;3.85;3.58;;;19.60;60.80;;;;;;5063799;28;20071;-67
2020/12/29 10:51:49;;;;;;;2.70;1.67;;;19.70;60.90;;;;;;5064556;28;20279;-69
2020/12/29 10:54:20;;;;;;;2.75;2.55;;;19.60;61.00;;;;;;5060289;28;20044;-68
2020/12/29 10:56:50;;;;;;;1.50;1.40;;;19.60;61.10;;;;;;5050474;28;20044;-68
2020/12/29 10:59:20;;;;;;;1.60;1.50;;;19.60;61.10;;;;;;5061114;28;20057;-68
2020/12/29 11:01:55;;;;;;;2.55;2.13;;;19.60;61.20;;;;;;5063976;28;20129;-68
2020/12/29 11:04:26;;;;;;;0.93;0.88;;;19.60;61.40;;;;;;5065899;28;20759;-67
2020/12/29 11:06:57;;;;;;;;;;;19.60;61.50;;;;;;5068613;28;20492;-69
2020/12/29 11:09:27;;;;;;;2.45;1.00;;;19.60;61.40;;;;;;5066778;28;20373;-67
2020/12/29 11:12:00;;;;;;;0.65;0.65;;;19.50;61.50;;;;;;5068563;28;20040;-68
2020/12/29 11:14:29;;;;;;;;;;;19.60;61.60;;;;;;5067016;28;20135;-66
2020/12/29 11:16:59;;;;;;;0.80;0.80;;;19.50;61.60;;;;;;5068715;28;19924;-68
2020/12/29 11:19:44;;;;;;;1.30;0.85;;;19.50;61.80;;;;;;5065453;28;20056;-67
2020/12/29 11:22:13;;;;;;;0.70;0.70;;;19.50;61.90;;;;;;5069532;28;20048;-68
2020/12/29 11:24:44;;;;;;;1.23;0.77;;;19.50;61.90;;;;;;5065752;28;20055;-67
2020/12/29 11:27:15;;;;;;;0.90;0.60;;;19.40;61.90;;;;;;5068552;28;20150;-68
2020/12/29 11:29:46;;;;;;;0.65;0.65;;;19.40;62.00;;;;;;5067718;28;20036;-67
2020/12/29 11:32:18;;;;;;;1.30;0.80;;;19.40;62.10;;;;;;5048563;28;20044;-67
2020/12/29 11:34:49;;;;;;;1.25;0.93;;;19.40;62.10;;;;;;5055060;28;20090;-67
2020/12/29 11:37:18;;;;;;;1.95;0.90;;;19.40;62.20;;;;;;5064907;28;20052;-67
2020/12/29 11:39:48;;;;;;;1.92;0.90;;;19.40;62.10;;;;;;5068129;28;20049;-67
2020/12/29 11:42:22;;;;;;;0.93;0.75;;;19.40;62.30;;;;;;5066325;28;20044;-67
2020/12/29 11:44:52;;;;;;;8.48;1.10;;;19.40;62.20;;;;;;5059707;28;20049;-67
2020/12/29 11:47:22;;;;;;;1.92;0.90;;;19.40;62.30;;;;;;5065218;28;20131;-69
2020/12/29 11:49:52;;;;;;;1.42;0.93;;;19.30;62.30;;;;;;5080236;28;20484;-68
2020/12/29 11:52:26;;;;;;;;;;;19.30;62.40;;;;;;5057296;28;20094;-69
2020/12/29 11:54:58;;;;;;;1.75;0.90;;;19.30;62.40;;;;;;5053733;28;20435;-67
2020/12/29 11:57:27;;;;;;;1.20;1.00;;;19.30;62.50;;;;;;5064365;28;20503;-68
2020/12/29 12:00:01;;;;;;;1.10;1.00;;;19.30;62.60;;;;;;5054778;28;20796;-67
2020/12/29 12:02:39;;;;;;;1.58;1.38;;;19.20;62.60;;;;;;5058595;28;20056;-67
2020/12/29 12:05:09;;;;;;;0.80;0.80;;;19.30;62.70;;;;;;5052893;28;20068;-67
2020/12/29 12:07:40;;;;;;;0.95;0.80;;;19.20;62.80;;;;;;5063382;28;20051;-69
2020/12/29 12:10:12;;;;;;;1.50;0.80;;;19.20;62.60;;;;;;5061034;28;20045;-67
2020/12/29 12:12:44;;;;;;;1.50;1.00;;;19.20;62.80;;;;;;5053084;28;20048;-69
2020/12/29 12:15:13;;;;;;;2.80;1.10;;;19.20;62.90;;;;;;5058929;28;20420;-67
2020/12/29 12:17:44;;;;;;;1.23;0.75;;;19.10;62.90;;;;;;5062604;28;20040;-66
2020/12/29 12:20:17;;;;;;;2.03;0.93;;;19.20;63.00;;;;;;5058373;28;20079;-67
2020/12/29 12:22:48;;;;;;;2.80;1.00;;;19.20;63.00;;;;;;5057870;28;20057;-65
2020/12/29 12:25:18;;;;;;;0.75;0.75;;;19.10;63.70;;;;;;5056596;28;20037;-66
2020/12/29 12:27:48;;;;;;;1.35;0.80;;;19.10;63.10;;;;;;5061324;28;20339;-66
2020/12/29 12:30:18;;;;;;;2.85;1.17;;;19.10;63.20;;;;;;5058128;28;20036;-67
2020/12/29 12:32:47;;;;;;;1.85;1.13;;;19.10;63.20;;;;;;5063527;28;20120;-67
2020/12/29 12:35:17;;;;;;;5.65;1.55;;;19.10;63.40;;;;;;5062259;28;20037;-67
2020/12/29 12:37:47;;;;;;;1.67;1.10;;;19.00;63.30;;;;;;5064364;28;20044;-66
2020/12/29 12:40:16;;;;;;;1.90;1.00;;;19.00;63.40;;;;;;5064866;28;20052;-66
2020/12/29 12:42:50;;;;;;;1.10;0.93;;;19.00;63.50;;;;;;5070574;28;20046;-67
2020/12/29 12:45:20;;;;;;;1.70;1.10;;;19.00;63.50;;;;;;5056588;28;20293;-66
2020/12/29 12:47:50;;;;;;;5.15;1.67;;;19.00;63.50;;;;;;5059690;28;20488;-67
2020/12/29 12:50:23;;;;;;;4.30;1.40;;;18.90;63.50;;;;;;5079767;28;20032;-67
2020/12/29 12:52:54;;;;;;;1.70;1.17;;;18.90;63.60;;;;;;5067148;28;20043;-68
2020/12/29 12:55:23;;;;;;;4.90;1.10;;;18.90;63.60;;;;;;5058858;28;20120;-67
2020/12/29 12:57:54;;;;;;;1.55;1.05;;;18.90;63.60;;;;;;5048022;28;20071;-67
2020/12/29 13:00:25;;;;;;;2.38;0.95;;;18.90;63.80;;;;;;5062236;28;20047;-67
2020/12/29 13:02:55;;;;;;;1.35;1.25;;;18.90;63.80;;;;;;5066929;28;20139;-67
2020/12/29 13:05:25;;;;;;;2.42;1.20;;;18.80;63.80;;;;;;5057861;28;20040;-67
2020/12/29 13:07:56;;;;;;;;;;;18.80;63.90;;;;;;5047831;28;20421;-67
2020/12/29 13:10:26;;;;;;;2.58;1.35;;;18.80;64.00;;;;;;5055694;28;19924;-67
2020/12/29 13:12:59;;;;;;;2.30;1.15;;;18.80;64.00;;;;;;5046956;28;20118;-67
2020/12/29 13:15:28;;;;;;;2.78;1.40;;;18.80;64.10;;;;;;5058605;28;20041;-69